Time;durP1;ratioP1;P1;durP2;ratioP2;P2;SDS_P1;SDS_P2;PMS_P1;PMS_P2;Temp;Humidity;BMP_temperature;BMP_pressure;BME280_temperature;BME280_humidity;BME280_pressure;Samples;Min_cycle;Max_cycle;Signal;HPM_P1;HPM_P2
2022/09/06 00:01:32;;;;;;;11.52;10.32;;;;;;;17.39;88.51;98874.50;4238777;27;20356;-71
2022/09/06 00:03:32;;;;;;;11.95;10.52;;;;;;;17.34;88.51;98867.34;4238439;27;20092;-71
2022/09/06 00:05:33;;;;;;;15.05;11.65;;;;;;;17.31;88.23;98878.56;4238101;27;20058;-72
2022/09/06 00:07:34;;;;;;;14.85;10.88;;;;;;;17.25;87.64;98872.63;4238296;27;20161;-71
2022/09/06 00:09:35;;;;;;;12.35;10.38;;;;;;;17.25;87.28;98871.81;4237453;27;20031;-71
2022/09/06 00:11:35;;;;;;;11.82;10.50;;;;;;;17.18;87.59;98869.88;4238214;27;20045;-71
2022/09/06 00:13:36;;;;;;;11.90;10.70;;;;;;;17.16;87.67;98872.31;4237562;27;20432;-71
2022/09/06 00:15:36;;;;;;;12.88;10.25;;;;;;;17.09;88.52;98866.78;4237538;27;20046;-71
2022/09/06 00:17:37;;;;;;;11.98;10.75;;;;;;;17.05;88.22;98872.41;4238103;27;20418;-71
2022/09/06 00:19:37;;;;;;;12.30;11.10;;;;;;;17.02;88.34;98878.81;4237761;27;20130;-71
2022/09/06 00:21:37;;;;;;;15.02;11.40;;;;;;;16.97;88.92;98872.88;4238409;27;20039;-71
2022/09/06 00:23:38;;;;;;;11.73;10.50;;;;;;;16.92;88.36;98879.69;4237395;27;20043;-71
2022/09/06 00:25:40;;;;;;;11.45;10.25;;;;;;;16.87;88.90;98880.09;4237643;27;20379;-71
2022/09/06 00:27:40;;;;;;;11.63;10.43;;;;;;;16.81;89.71;98882.56;4238204;27;20378;-71
2022/09/06 00:29:40;;;;;;;12.32;10.93;;;;;;;16.72;89.94;98870.28;4236472;27;20076;-71
2022/09/06 00:31:41;;;;;;;12.10;10.77;;;;;;;16.66;89.74;98871.88;4237767;27;20039;-71
2022/09/06 00:33:41;;;;;;;12.13;10.80;;;;;;;16.63;89.81;98879.03;4237811;27;20138;-71
2022/09/06 00:35:43;;;;;;;11.50;10.32;;;;;;;16.56;89.92;98874.31;4237613;27;20211;-71
2022/09/06 00:37:44;;;;;;;11.23;10.07;;;;;;;16.55;89.32;98869.16;4237772;27;20051;-71
2022/09/06 00:39:44;;;;;;;12.13;10.20;;;;;;;16.53;88.55;98866.75;4236610;27;20054;-71
2022/09/06 00:41:45;;;;;;;14.30;10.90;;;;;;;16.56;88.60;98865.16;4237999;27;20047;-71
2022/09/06 00:43:45;;;;;;;12.15;9.98;;;;;;;16.52;88.67;98865.16;4237392;27;20066;-71
2022/09/06 00:45:46;;;;;;;16.40;10.88;;;;;;;16.53;87.75;98872.31;4237794;27;20507;-71
2022/09/06 00:47:46;;;;;;;11.38;9.98;;;;;;;16.47;88.08;98862.03;4236500;27;20585;-72
2022/09/06 00:49:50;;;;;;;11.55;10.35;;;;;;;16.46;88.14;98858.41;4236847;27;20066;-72
2022/09/06 00:51:58;;;;;;;11.52;10.32;;;;;;;16.37;88.87;98860.06;4237568;27;20048;-72
2022/09/06 00:54:02;;;;;;;10.90;9.63;;;;;;;16.34;88.62;98861.69;4236950;27;20042;-72
2022/09/06 00:56:03;;;;;;;16.33;10.75;;;;;;;16.30;88.03;98860.88;4237012;27;20043;-72
2022/09/06 00:58:04;;;;;;;11.48;10.35;;;;;;;16.27;88.82;98870.88;4237425;27;20579;-71
2022/09/06 01:00:07;;;;;;;11.68;10.48;;;;;;;16.25;88.26;98855.75;4236983;27;20107;-71
2022/09/06 01:02:08;;;;;;;13.73;10.85;;;;;;;16.22;88.45;98864.94;4237888;27;20034;-71
2022/09/06 01:04:09;;;;;;;10.80;9.48;;;;;;;16.18;88.40;98862.16;4237244;27;20031;-71
2022/09/06 01:06:25;;;;;;;11.88;10.63;;;;;;;16.16;88.29;98856.19;4237631;27;20027;-71
2022/09/06 01:08:31;;;;;;;11.20;9.63;;;;;;;16.12;88.53;98854.59;4236427;27;20039;-71
2022/09/06 01:10:34;;;;;;;13.18;10.18;;;;;;;16.07;88.24;98867.00;4237089;27;20093;-71
2022/09/06 01:13:04;;;;;;;10.95;9.75;;;;;;;16.01;89.56;98869.41;4237079;27;20430;-71
2022/09/06 01:15:15;;;;;;;11.63;9.77;;;;;;;15.94;89.73;98865.84;4166543;28;20072;-71
2022/09/06 01:17:36;;;;;;;13.50;10.48;;;;;;;15.83;90.43;98859.53;4237350;27;20379;-71
2022/09/06 01:19:39;;;;;;;10.50;9.50;;;;;;;15.80;89.89;98868.69;4236085;27;20047;-71
2022/09/06 01:22:10;;;;;;;11.18;10.10;;;;;;;15.74;90.16;98862.75;4236647;27;20436;-72
2022/09/06 01:24:24;;;;;;;12.00;10.73;;;;;;;15.68;90.48;98855.97;4236356;27;20084;-71
2022/09/06 01:26:39;;;;;;;12.55;10.80;;;;;;;15.67;90.53;98859.97;4236360;27;20510;-71
2022/09/06 01:28:44;;;;;;;12.25;10.95;;;;;;;15.60;91.87;98857.97;4236288;27;20094;-72
2022/09/06 01:30:56;;;;;;;13.23;10.90;;;;;;;15.55;93.59;98857.56;4218427;28;20050;-71
2022/09/06 01:33:07;;;;;;;11.10;10.00;;;;;;;15.52;94.82;98858.38;4236879;27;20490;-71
2022/09/06 01:35:26;;;;;;;12.15;10.75;;;;;;;15.51;93.84;98867.94;4236717;27;20062;-71
2022/09/06 01:37:27;;;;;;;11.73;10.52;;;;;;;15.45;93.50;98854.41;4236150;27;20074;-71
2022/09/06 01:39:32;;;;;;;12.60;11.05;;;;;;;15.42;92.98;98857.22;4235304;27;20394;-71
2022/09/06 01:41:32;;;;;;;12.18;10.95;;;;;;;15.37;94.34;98846.44;4236651;27;20096;-71
2022/09/06 01:43:37;;;;;;;12.93;11.20;;;;;;;15.33;94.53;98846.47;4236766;27;20071;-71
2022/09/06 01:45:56;;;;;;;12.43;10.98;;;;;;;15.31;93.11;98843.28;4236175;27;20050;-71
2022/09/06 01:48:21;;;;;;;14.07;10.75;;;;;;;15.31;92.44;98836.94;4236016;27;20047;-71
2022/09/06 01:50:22;;;;;;;13.40;12.00;;;;;;;15.28;92.84;98849.66;4236395;27;20050;-72
2022/09/06 01:52:47;;;;;;;13.57;12.13;;;;;;;15.23;94.04;98840.91;4236221;27;20408;-71
2022/09/06 01:54:59;;;;;;;12.65;10.88;;;;;;;15.21;93.35;98846.88;4236562;27;20050;-71
2022/09/06 01:57:13;;;;;;;12.48;11.25;;;;;;;15.13;93.86;98850.88;4235660;27;20390;-71
2022/09/06 01:59:53;;;;;;;13.77;12.02;;;;;;;15.12;94.21;98849.28;4235119;27;20494;-71
2022/09/06 02:01:59;;;;;;;13.25;10.68;;;;;;;15.08;94.68;98849.28;4235807;27;20084;-71
2022/09/06 02:04:07;;;;;;;12.25;10.98;;;;;;;15.06;93.41;98848.91;4236793;27;20347;-71
2022/09/06 02:06:13;;;;;;;14.55;10.80;;;;;;;15.10;92.52;98838.53;4235645;27;20046;-71
2022/09/06 02:08:19;;;;;;;14.25;11.68;;;;;;;15.14;93.78;98841.31;4236312;27;20479;-71
2022/09/06 02:10:30;;;;;;;14.43;11.25;;;;;;;15.11;93.96;98837.34;4236465;27;20033;-71
2022/09/06 02:12:32;;;;;;;11.88;10.63;;;;;;;15.11;93.79;98833.75;4236106;27;20046;-71
2022/09/06 02:14:42;;;;;;;16.08;11.90;;;;;;;15.05;94.11;98826.97;4236777;27;20039;-72
2022/09/06 02:16:47;;;;;;;11.48;10.38;;;;;;;15.01;94.62;98827.00;4235782;28;20049;-71
2022/09/06 02:19:16;;;;;;;12.82;10.88;;;;;;;14.97;94.13;98830.97;4235721;28;20387;-71
2022/09/06 02:21:21;;;;;;;12.82;11.23;;;;;;;14.91;95.01;98832.59;4232306;28;20066;-71
2022/09/06 02:23:26;;;;;;;11.77;10.57;;;;;;;14.93;93.70;98828.19;4235395;28;20356;-72
2022/09/06 02:25:34;;;;;;;14.02;11.07;;;;;;;14.95;94.23;98817.44;4235987;28;20043;-71
2022/09/06 02:27:34;;;;;;;14.52;10.98;;;;;;;14.92;94.55;98807.09;4234965;28;20475;-71
2022/09/06 02:29:35;;;;;;;11.50;10.40;;;;;;;14.95;94.20;98806.31;4236051;28;20047;-71
2022/09/06 02:31:42;;;;;;;11.20;10.00;;;;;;;14.96;95.21;98812.66;4236535;28;20148;-71
2022/09/06 02:33:44;;;;;;;11.57;10.27;;;;;;;14.97;94.03;98817.03;4236100;28;20032;-72
2022/09/06 02:35:48;;;;;;;13.02;10.20;;;;;;;15.03;92.87;98810.66;4235179;28;20527;-71
2022/09/06 02:37:49;;;;;;;11.77;10.40;;;;;;;15.04;92.42;98805.88;4237941;27;20478;-71
2022/09/06 02:39:49;;;;;;;12.07;9.98;;;;;;;15.04;92.53;98812.25;4239391;27;20043;-71
2022/09/06 02:41:50;;;;;;;12.98;11.05;;;;;;;15.04;92.44;98815.03;4240287;27;20434;-71
2022/09/06 02:43:50;;;;;;;11.25;10.05;;;;;;;15.05;91.82;98805.47;4239570;27;20096;-71
2022/09/06 02:45:50;;;;;;;11.20;9.55;;;;;;;15.07;92.24;98807.91;4239547;27;20364;-71
2022/09/06 02:47:51;;;;;;;11.32;10.18;;;;;;;15.04;92.84;98803.91;4239852;27;20566;-71
2022/09/06 02:49:51;;;;;;;14.25;10.20;;;;;;;15.03;92.48;98799.53;4239129;27;20067;-71
2022/09/06 02:51:51;;;;;;;10.43;9.35;;;;;;;15.01;93.76;98803.91;4239675;27;20054;-71
2022/09/06 02:53:52;;;;;;;12.30;9.80;;;;;;;14.98;94.12;98805.53;4239955;27;20070;-71
2022/09/06 02:55:52;;;;;;;10.55;9.45;;;;;;;14.94;94.46;98799.13;4239186;27;20095;-71
2022/09/06 02:57:52;;;;;;;12.35;11.05;;;;;;;14.93;95.09;98803.13;4239152;27;20477;-71
2022/09/06 02:59:53;;;;;;;11.32;10.13;;;;;;;14.91;95.24;98801.94;4239218;27;20757;-71
2022/09/06 03:01:53;;;;;;;11.70;9.50;;;;;;;14.91;95.43;98801.94;4239630;27;20050;-71
2022/09/06 03:03:54;;;;;;;11.43;8.98;;;;;;;14.89;94.10;98799.53;4238939;27;20047;-71
2022/09/06 03:05:55;;;;;;;11.18;9.65;;;;;;;14.92;93.83;98795.97;4239128;27;20077;-71
2022/09/06 03:07:55;;;;;;;11.65;10.35;;;;;;;14.91;93.55;98802.72;4239387;27;20395;-71
2022/09/06 03:09:56;;;;;;;10.82;9.50;;;;;;;14.91;93.77;98793.59;4238465;27;20099;-71
2022/09/06 03:11:56;;;;;;;11.32;10.02;;;;;;;14.89;94.28;98791.16;4239123;27;20050;-71
2022/09/06 03:13:56;;;;;;;12.38;10.75;;;;;;;14.87;96.14;98801.94;4239383;27;20402;-71
2022/09/06 03:15:58;;;;;;;14.68;10.77;;;;;;;14.83;96.76;98801.94;4239008;27;20743;-71
2022/09/06 03:17:59;;;;;;;11.65;10.25;;;;;;;14.81;96.58;98804.34;4238546;27;20043;-71
2022/09/06 03:19:59;;;;;;;12.50;10.45;;;;;;;14.81;96.66;98798.75;4238835;27;20082;-72
2022/09/06 03:21:59;;;;;;;13.45;11.00;;;;;;;14.81;95.58;98801.56;4239208;27;20478;-71
2022/09/06 03:23:59;;;;;;;12.65;10.40;;;;;;;14.82;95.54;98808.72;4239345;27;20092;-71
2022/09/06 03:26:00;;;;;;;12.85;11.43;;;;;;;14.77;95.13;98797.97;4238581;27;20063;-71
2022/09/06 03:28:01;;;;;;;11.63;10.43;;;;;;;14.75;96.16;98797.56;4238167;27;20555;-71
2022/09/06 03:30:01;;;;;;;13.38;11.05;;;;;;;14.74;96.44;98795.19;4237759;27;20047;-71
2022/09/06 03:32:02;;;;;;;19.38;12.52;;;;;;;14.72;97.54;98792.78;4238889;27;20019;-71
2022/09/06 03:34:02;;;;;;;14.20;10.98;;;;;;;14.73;98.06;98793.56;4238326;27;20187;-71
2022/09/06 03:36:03;;;;;;;13.75;10.70;;;;;;;14.70;98.40;98794.38;4239054;27;20029;-71
2022/09/06 03:38:03;;;;;;;14.75;11.73;;;;;;;14.71;98.41;98788.41;4238624;27;20459;-71
2022/09/06 03:40:05;;;;;;;13.30;11.88;;;;;;;14.66;98.26;98788.81;4238530;27;20512;-71
2022/09/06 03:42:05;;;;;;;14.75;11.10;;;;;;;14.64;98.00;98788.41;4238916;27;20017;-71
2022/09/06 03:44:05;;;;;;;13.50;11.05;;;;;;;14.65;99.15;98790.00;4236063;27;20042;-71
2022/09/06 03:46:06;;;;;;;14.75;12.40;;;;;;;14.64;99.08;98785.63;4238084;27;20034;-71
2022/09/06 03:48:06;;;;;;;12.60;10.85;;;;;;;14.65;99.45;98786.44;4238330;27;20060;-72
2022/09/06 03:50:07;;;;;;;12.30;10.48;;;;;;;14.65;97.63;98780.88;4237949;27;20023;-71
2022/09/06 03:52:07;;;;;;;12.00;10.15;;;;;;;14.68;96.36;98777.28;4235494;27;20118;-71
2022/09/06 03:54:08;;;;;;;13.10;10.88;;;;;;;14.70;96.16;98784.03;4237573;27;20145;-71
2022/09/06 03:56:08;;;;;;;13.90;11.43;;;;;;;14.71;96.21;98776.47;4236712;27;20625;-71
2022/09/06 03:58:08;;;;;;;14.07;11.52;;;;;;;14.70;95.62;98781.25;4237493;27;20023;-71
2022/09/06 04:00:09;;;;;;;14.60;10.85;;;;;;;14.66;94.87;98772.09;4236643;27;20031;-71
2022/09/06 04:02:09;;;;;;;12.45;10.45;;;;;;;14.69;95.40;98778.84;4236876;27;20033;-71
2022/09/06 04:04:09;;;;;;;12.13;10.93;;;;;;;14.67;95.88;98779.25;4237254;27;20027;-71
2022/09/06 04:06:10;;;;;;;13.90;11.35;;;;;;;14.70;95.51;98772.88;4237390;27;20035;-71
2022/09/06 04:08:10;;;;;;;12.43;11.13;;;;;;;14.68;95.72;98783.63;4236084;27;20046;-71
2022/09/06 04:10:11;;;;;;;14.27;11.25;;;;;;;14.68;96.58;98780.06;4236442;27;20035;-71
2022/09/06 04:12:11;;;;;;;15.45;10.70;;;;;;;14.65;97.09;98783.66;4237298;27;20133;-71
2022/09/06 04:14:11;;;;;;;12.48;10.27;;;;;;;14.61;98.28;98775.28;4237842;27;20110;-71
2022/09/06 04:16:11;;;;;;;14.45;11.40;;;;;;;14.59;96.65;98778.47;4236068;27;20039;-71
2022/09/06 04:18:12;;;;;;;13.27;10.55;;;;;;;14.59;96.21;98772.09;4236507;27;20031;-71
2022/09/06 04:20:14;;;;;;;12.30;10.73;;;;;;;14.60;95.71;98756.97;4236588;27;20054;-71
2022/09/06 04:22:14;;;;;;;15.60;11.00;;;;;;;14.68;94.93;98768.91;4237512;27;20027;-71
2022/09/06 04:24:15;;;;;;;17.23;10.75;;;;;;;14.68;95.16;98758.56;4237105;27;20428;-71
2022/09/06 04:26:16;;;;;;;11.00;9.60;;;;;;;14.66;95.30;98762.97;4236323;27;20031;-71
2022/09/06 04:28:17;;;;;;;12.73;10.27;;;;;;;14.66;96.24;98752.63;4237050;27;20449;-71
2022/09/06 04:30:18;;;;;;;12.13;10.70;;;;;;;14.64;96.32;98752.19;4235890;27;20031;-71
2022/09/06 04:32:18;;;;;;;14.55;10.93;;;;;;;14.63;95.82;98752.59;4236312;27;20031;-71
2022/09/06 04:34:18;;;;;;;14.32;10.73;;;;;;;14.64;96.65;98748.63;4236913;27;20481;-71
2022/09/06 04:36:19;;;;;;;13.38;10.25;;;;;;;14.63;97.43;98749.81;4236822;27;20540;-71
2022/09/06 04:38:19;;;;;;;12.25;10.38;;;;;;;14.64;97.15;98748.63;4236210;27;20043;-71
2022/09/06 04:40:19;;;;;;;14.90;10.45;;;;;;;14.65;95.89;98758.59;4236443;27;20027;-71
2022/09/06 04:42:20;;;;;;;16.23;10.77;;;;;;;14.65;95.26;98750.22;4237212;27;20080;-71
2022/09/06 04:44:20;;;;;;;18.85;11.50;;;;;;;14.66;95.03;98738.69;4235899;27;20164;-71
2022/09/06 04:46:24;;;;;;;11.75;9.95;;;;;;;14.67;95.56;98737.50;4236039;27;20066;-71
2022/09/06 04:48:24;;;;;;;14.35;10.20;;;;;;;14.68;95.72;98741.88;4236678;27;20383;-71
2022/09/06 04:50:24;;;;;;;13.75;11.57;;;;;;;14.68;96.09;98735.50;4237039;27;20126;-71
2022/09/06 04:52:24;;;;;;;18.15;12.30;;;;;;;14.69;96.33;98737.09;4237061;27;20470;-71
2022/09/06 04:54:25;;;;;;;17.33;11.18;;;;;;;14.68;96.63;98738.28;4236460;27;20177;-71
2022/09/06 04:56:25;;;;;;;13.93;10.75;;;;;;;14.67;96.60;98739.47;4236546;27;20050;-71
2022/09/06 04:58:26;;;;;;;17.05;10.63;;;;;;;14.66;97.37;98738.69;4144941;27;20728;-71
2022/09/06 05:00:27;;;;;;;11.98;10.35;;;;;;;14.65;98.33;98742.66;4236199;27;20043;-72
2022/09/06 05:02:27;;;;;;;15.75;11.25;;;;;;;14.64;97.54;98741.06;4236947;27;21060;-71
2022/09/06 05:04:28;;;;;;;16.08;12.23;;;;;;;14.63;96.79;98739.47;4236290;27;20050;-71
2022/09/06 05:06:28;;;;;;;16.25;11.82;;;;;;;14.60;97.43;98740.28;4233679;27;20550;-71
2022/09/06 05:08:28;;;;;;;14.88;11.35;;;;;;;14.59;97.42;98738.69;4235860;27;20472;-71
2022/09/06 05:10:28;;;;;;;15.82;11.35;;;;;;;14.58;97.59;98745.47;4236330;27;20035;-71
2022/09/06 05:12:29;;;;;;;12.93;10.77;;;;;;;14.55;97.65;98743.44;4236567;27;20066;-71
2022/09/06 05:14:29;;;;;;;14.90;11.32;;;;;;;14.60;97.73;98743.06;4236782;27;20538;-71
2022/09/06 05:16:30;;;;;;;16.63;11.82;;;;;;;14.62;96.40;98749.03;4236119;27;20045;-71
2022/09/06 05:18:30;;;;;;;12.13;10.77;;;;;;;14.63;96.98;98747.03;4236313;27;20346;-71
2022/09/06 05:20:31;;;;;;;16.27;11.23;;;;;;;14.63;97.84;98749.81;4236831;27;20036;-71
2022/09/06 05:22:32;;;;;;;14.30;12.07;;;;;;;14.60;98.57;98748.63;4237455;27;20130;-71
2022/09/06 05:24:32;;;;;;;13.73;11.50;;;;;;;14.63;99.33;98739.47;4236731;27;20074;-71
2022/09/06 05:26:32;;;;;;;13.70;12.30;;;;;;;14.63;100.00;98747.03;4236942;27;20051;-71
2022/09/06 05:28:33;;;;;;;14.88;11.73;;;;;;;14.59;100.00;98744.25;4235850;27;20043;-71
2022/09/06 05:30:33;;;;;;;14.48;11.60;;;;;;;14.57;100.00;98746.66;4236304;27;20126;-71
2022/09/06 05:32:33;;;;;;;15.15;12.63;;;;;;;14.57;100.00;98739.09;4237053;27;20042;-71
2022/09/06 05:34:33;;;;;;;15.30;12.98;;;;;;;14.57;100.00;98739.09;4236720;27;20055;-71
2022/09/06 05:36:34;;;;;;;15.65;12.48;;;;;;;14.60;100.00;98743.06;4237597;27;20043;-71
2022/09/06 05:38:34;;;;;;;13.75;12.23;;;;;;;14.58;100.00;98734.31;4236479;27;20063;-71
2022/09/06 05:40:34;;;;;;;12.20;10.82;;;;;;;14.63;100.00;98735.88;4235552;27;20043;-71
2022/09/06 05:42:35;;;;;;;12.90;11.50;;;;;;;14.67;100.00;98733.91;4236423;27;20063;-71
2022/09/06 05:44:36;;;;;;;16.92;12.10;;;;;;;14.74;99.98;98739.47;4236356;27;20577;-71
2022/09/06 05:46:44;;;;;;;18.35;12.68;;;;;;;14.78;100.00;98740.25;4235493;27;20501;-71
2022/09/06 05:48:52;;;;;;;14.38;11.52;;;;;;;14.84;100.00;98744.25;4236444;27;20114;-71
2022/09/06 05:51:00;;;;;;;12.85;11.55;;;;;;;14.90;100.00;98748.22;4235901;27;20087;-71
2022/09/06 05:53:01;;;;;;;15.32;11.75;;;;;;;14.96;100.00;98743.81;4236591;27;20039;-71
2022/09/06 05:55:03;;;;;;;14.80;12.15;;;;;;;15.04;100.00;98742.59;4236581;27;20069;-71
2022/09/06 05:57:03;;;;;;;14.25;11.55;;;;;;;15.09;100.00;98735.84;4237189;27;20265;-71
2022/09/06 05:59:04;;;;;;;13.38;11.65;;;;;;;15.19;98.87;98735.00;4235619;27;20382;-71
2022/09/06 06:01:16;;;;;;;14.45;11.63;;;;;;;15.28;97.98;98748.50;4236802;27;20047;-71
2022/09/06 06:03:16;;;;;;;12.45;11.15;;;;;;;15.34;98.74;98738.53;4236655;27;20046;-71
2022/09/06 06:05:16;;;;;;;13.20;11.65;;;;;;;15.43;98.87;98741.69;4236606;27;20073;-71
2022/09/06 06:07:17;;;;;;;13.27;11.88;;;;;;;15.50;98.51;98750.03;4236663;27;20053;-71
2022/09/06 06:09:17;;;;;;;14.05;11.23;;;;;;;15.55;98.05;98757.16;4236193;27;20314;-71
2022/09/06 06:11:18;;;;;;;13.85;11.73;;;;;;;15.62;97.62;98766.34;4236585;27;20035;-71
2022/09/06 06:13:18;;;;;;;11.93;10.60;;;;;;;15.68;97.12;98761.94;4236603;27;20119;-71
2022/09/06 06:15:18;;;;;;;13.30;11.50;;;;;;;15.73;96.89;98771.88;4236464;27;20155;-71
2022/09/06 06:17:18;;;;;;;14.85;11.05;;;;;;;15.79;96.81;98778.63;4236202;28;20055;-71
2022/09/06 06:19:19;;;;;;;13.70;11.80;;;;;;;15.85;97.29;98776.22;4236011;28;20129;-71
2022/09/06 06:21:24;;;;;;;15.48;13.10;;;;;;;15.92;96.74;98774.19;4236686;28;20070;-71
2022/09/06 06:23:24;;;;;;;14.90;12.80;;;;;;;15.96;97.17;98790.88;4236558;28;20099;-71
2022/09/06 06:25:25;;;;;;;15.38;12.98;;;;;;;15.87;98.35;98780.16;4236271;28;20435;-71
2022/09/06 06:27:25;;;;;;;15.45;12.68;;;;;;;15.89;98.68;98786.16;4235852;28;20045;-71
2022/09/06 06:29:25;;;;;;;14.85;12.25;;;;;;;15.87;99.07;98777.38;4235947;28;20047;-71
2022/09/06 06:31:26;;;;;;;16.55;12.82;;;;;;;15.85;99.23;98768.63;4236129;28;20058;-71
2022/09/06 06:33:26;;;;;;;14.13;12.30;;;;;;;15.85;99.21;98768.63;4236608;28;20450;-71
2022/09/06 06:35:27;;;;;;;20.27;15.65;;;;;;;15.86;98.81;98778.59;4236371;28;20057;-71
2022/09/06 06:37:27;;;;;;;14.35;12.88;;;;;;;15.87;98.69;98785.75;4236255;27;20036;-71
2022/09/06 06:39:27;;;;;;;15.25;12.27;;;;;;;15.90;98.81;98793.31;4235576;28;20075;-71
2022/09/06 06:41:30;;;;;;;13.73;12.27;;;;;;;15.94;98.63;98780.13;4236263;28;20055;-72
2022/09/06 06:43:37;;;;;;;14.93;12.82;;;;;;;16.00;98.49;98786.88;4236375;28;20042;-71
2022/09/06 06:45:37;;;;;;;14.50;12.57;;;;;;;16.02;97.72;98783.69;4236304;28;20054;-71
2022/09/06 06:47:37;;;;;;;17.20;12.55;;;;;;;16.07;97.59;98783.28;4236231;28;20043;-71
2022/09/06 06:49:38;;;;;;;14.32;12.00;;;;;;;16.11;97.84;98786.81;4235547;28;20039;-71
2022/09/06 06:51:38;;;;;;;17.20;12.75;;;;;;;16.14;98.12;98774.88;4236277;28;20515;-71
2022/09/06 06:53:38;;;;;;;15.07;12.23;;;;;;;16.19;97.91;98782.78;4236168;28;20092;-71
2022/09/06 06:55:39;;;;;;;16.27;12.55;;;;;;;16.20;97.73;98783.59;4236372;28;20494;-71
2022/09/06 06:57:39;;;;;;;13.90;11.60;;;;;;;16.23;97.76;98785.56;4236390;28;20170;-71
2022/09/06 06:59:39;;;;;;;16.80;13.40;;;;;;;16.26;98.12;98790.34;4235683;28;20039;-71
2022/09/06 07:01:40;;;;;;;15.00;12.88;;;;;;;16.27;98.23;98786.34;4235647;28;20039;-71
2022/09/06 07:03:40;;;;;;;15.45;12.55;;;;;;;16.28;97.55;98790.72;4236388;28;20493;-71
2022/09/06 07:05:45;;;;;;;14.88;12.57;;;;;;;16.31;97.30;98783.53;4236083;28;20058;-72
2022/09/06 07:07:45;;;;;;;14.30;12.32;;;;;;;16.33;97.40;98783.91;4235813;28;20127;-72
2022/09/06 07:09:46;;;;;;;15.93;12.13;;;;;;;16.36;97.21;98783.88;4235484;28;20135;-72
2022/09/06 07:11:47;;;;;;;14.27;11.57;;;;;;;16.43;97.27;98785.84;4236011;28;20059;-71
2022/09/06 07:13:48;;;;;;;16.38;13.40;;;;;;;16.45;97.56;98791.78;4234579;28;20430;-72
2022/09/06 07:15:48;;;;;;;15.25;11.55;;;;;;;16.46;97.36;98791.38;4236334;28;20058;-72
2022/09/06 07:17:49;;;;;;;15.20;12.52;;;;;;;16.53;97.73;98784.94;4236003;28;20611;-71
2022/09/06 07:19:49;;;;;;;15.70;11.55;;;;;;;16.61;97.96;98778.09;4235783;28;20483;-71
2022/09/06 07:21:49;;;;;;;15.45;12.48;;;;;;;16.66;97.76;98776.88;4235919;28;20054;-71
2022/09/06 07:23:50;;;;;;;15.00;12.38;;;;;;;16.68;96.83;98783.63;4237702;27;20047;-71
2022/09/06 07:25:50;;;;;;;16.30;12.10;;;;;;;16.74;95.15;98782.03;4239558;27;20086;-71
2022/09/06 07:28:05;;;;;;;12.88;11.57;;;;;;;16.81;95.22;98772.78;4238587;27;20078;-71
2022/09/06 07:30:06;;;;;;;14.85;11.77;;;;;;;16.88;94.73;98772.75;4238475;27;20784;-71
2022/09/06 07:32:06;;;;;;;13.18;11.10;;;;;;;16.97;94.15;98772.25;4239181;27;20036;-72
2022/09/06 07:34:07;;;;;;;13.10;11.68;;;;;;;17.05;93.45;98773.78;4238980;27;20039;-71
2022/09/06 07:36:08;;;;;;;14.63;12.15;;;;;;;17.10;92.17;98778.91;4239256;27;20033;-72
2022/09/06 07:38:08;;;;;;;17.77;11.90;;;;;;;17.15;90.68;98783.25;4239356;27;20042;-72
2022/09/06 07:40:09;;;;;;;13.70;11.70;;;;;;;17.19;90.86;98779.19;4237990;27;20104;-72
2022/09/06 07:42:10;;;;;;;12.32;10.57;;;;;;;17.23;91.03;98774.38;4238789;27;20551;-71
2022/09/06 07:44:10;;;;;;;12.77;11.48;;;;;;;17.29;90.44;98772.69;4239292;27;20347;-71
2022/09/06 07:46:13;;;;;;;13.52;10.50;;;;;;;17.33;90.23;98779.06;4238876;27;20042;-71
2022/09/06 07:48:14;;;;;;;14.18;10.65;;;;;;;17.37;89.42;98777.00;4238713;27;20642;-72
2022/09/06 07:50:14;;;;;;;14.77;11.23;;;;;;;17.44;90.64;98778.94;4238304;27;20031;-71
2022/09/06 07:52:14;;;;;;;12.38;10.57;;;;;;;17.50;90.49;98776.47;4238690;27;20034;-71
2022/09/06 07:54:15;;;;;;;11.73;10.52;;;;;;;17.55;90.23;98773.25;4238441;27;20214;-71
2022/09/06 07:56:15;;;;;;;16.13;11.38;;;;;;;17.58;90.21;98772.41;4239059;27;20027;-72
2022/09/06 07:58:16;;;;;;;12.68;10.85;;;;;;;17.61;90.28;98768.75;4237949;27;20138;-71
2022/09/06 08:00:17;;;;;;;12.82;10.70;;;;;;;17.66;89.79;98768.28;4237450;27;20019;-71
2022/09/06 08:02:17;;;;;;;14.52;12.02;;;;;;;17.69;89.51;98762.66;4238695;27;20147;-71
2022/09/06 08:04:17;;;;;;;14.95;10.68;;;;;;;17.74;88.10;98764.22;4238246;27;20367;-71
2022/09/06 08:06:18;;;;;;;12.65;11.35;;;;;;;17.77;88.65;98759.78;4238723;27;20528;-71
2022/09/06 08:08:18;;;;;;;12.55;10.40;;;;;;;17.84;88.84;98765.28;4237837;27;20029;-71
2022/09/06 08:10:18;;;;;;;12.15;10.50;;;;;;;17.90;88.69;98766.44;4238147;27;20019;-71
2022/09/06 08:12:19;;;;;;;15.25;10.50;;;;;;;17.96;87.67;98759.94;4238555;27;20080;-71
2022/09/06 08:14:19;;;;;;;11.68;10.43;;;;;;;18.02;87.33;98760.25;4238305;27;20031;-71
2022/09/06 08:16:21;;;;;;;10.93;9.82;;;;;;;18.09;86.35;98762.16;4238145;27;20031;-71
2022/09/06 08:18:21;;;;;;;11.25;10.10;;;;;;;18.17;86.79;98756.03;4238107;27;20524;-72
2022/09/06 08:20:22;;;;;;;10.90;9.30;;;;;;;18.24;86.80;98760.75;4238377;27;20390;-71
2022/09/06 08:22:22;;;;;;;13.80;10.98;;;;;;;18.34;87.17;98759.00;4219739;28;20101;-71
2022/09/06 08:24:22;;;;;;;12.57;10.45;;;;;;;18.40;85.44;98754.50;4237503;27;20042;-71
2022/09/06 08:26:24;;;;;;;10.77;9.55;;;;;;;18.47;85.58;98751.59;4238435;27;20054;-71
2022/09/06 08:28:25;;;;;;;13.20;9.35;;;;;;;18.55;86.17;98761.47;4237356;27;20043;-71
2022/09/06 08:30:26;;;;;;;11.40;10.23;;;;;;;18.60;85.16;98749.75;4237705;27;20040;-71
2022/09/06 08:32:26;;;;;;;14.10;9.70;;;;;;;18.67;84.22;98757.28;4238208;27;20657;-71
2022/09/06 08:34:27;;;;;;;14.98;11.02;;;;;;;18.73;85.07;98756.38;4237701;27;20055;-71
2022/09/06 08:36:29;;;;;;;14.38;11.30;;;;;;;18.79;86.33;98751.88;4238224;27;20039;-71
2022/09/06 08:38:30;;;;;;;12.88;11.05;;;;;;;18.82;85.34;98761.44;4236951;27;20567;-71
2022/09/06 08:40:31;;;;;;;11.43;10.02;;;;;;;18.88;85.37;98759.75;4238511;27;20091;-71
2022/09/06 08:42:31;;;;;;;11.57;10.38;;;;;;;18.91;84.87;98758.88;4237699;27;20088;-71
2022/09/06 08:44:33;;;;;;;12.88;10.75;;;;;;;19.03;83.88;98749.88;4237923;27;20039;-71
2022/09/06 08:46:39;;;;;;;11.57;9.68;;;;;;;19.14;83.57;98754.47;4237895;27;20043;-71
2022/09/06 08:48:39;;;;;;;12.25;9.75;;;;;;;19.15;82.16;98756.06;4237374;27;20507;-71
2022/09/06 08:50:49;;;;;;;10.38;9.32;;;;;;;19.18;84.00;98767.19;4237299;27;20190;-71
2022/09/06 08:53:18;;;;;;;12.65;11.20;;;;;;;19.18;84.23;98769.22;4237884;27;20455;-71
2022/09/06 08:55:25;;;;;;;17.83;11.32;;;;;;;19.19;84.11;98790.44;4238237;27;20386;-71
2022/09/06 08:57:40;;;;;;;11.95;10.00;;;;;;;19.15;83.68;98812.16;4238161;27;20040;-72
2022/09/06 08:59:41;;;;;;;14.07;10.30;;;;;;;19.15;82.90;98818.56;4236837;27;20410;-71
2022/09/06 09:01:54;;;;;;;22.13;11.77;;;;;;;19.07;84.07;98833.91;4237664;27;20075;-71
2022/09/06 09:03:58;;;;;;;24.65;13.85;;;;;;;18.92;87.36;98827.75;4237136;27;20057;-71
2022/09/06 09:06:00;;;;;;;26.23;17.05;;;;;;;18.51;92.12;98825.16;4237621;27;20122;-72
2022/09/06 09:08:00;;;;;;;38.97;21.70;;;;;;;18.37;92.50;98830.97;4237220;27;20047;-71
2022/09/06 09:10:08;;;;;;;24.58;17.98;;;;;;;18.17;94.14;98816.84;4237085;27;20058;-71
2022/09/06 09:12:10;;;;;;;22.35;17.98;;;;;;;18.03;96.26;98820.63;4236809;27;20039;-71
2022/09/06 09:14:17;;;;;;;18.65;15.88;;;;;;;17.91;97.49;98824.78;4237360;27;20031;-72
2022/09/06 09:16:18;;;;;;;28.67;18.23;;;;;;;17.82;99.37;98834.91;4237119;27;20034;-72
2022/09/06 09:18:24;;;;;;;32.92;25.95;;;;;;;17.76;99.90;98836.56;4236639;27;20034;-71
2022/09/06 09:20:24;;;;;;;23.05;20.38;;;;;;;17.64;100.00;98844.25;4237445;27;20459;-71
2022/09/06 09:22:24;;;;;;;23.45;16.85;;;;;;;17.57;100.00;98846.34;4236773;27;20054;-72
2022/09/06 09:24:25;;;;;;;22.23;16.15;;;;;;;17.55;100.00;98834.78;4237027;27;20399;-72